KCUB/CUB METAR and TAF weather

Enter ICAO airport designator
Station Type Date Time Source
KCUB METAR 2021/05/14 02:53 UTC NOAA

KCUB 140253Z AUTO 00000KT 10SM CLR 14/08 A3023 RMK AO2 SLP235 T01440078 53015


Station Type Date Time Source
KCUB Decoded METAR 2021/05/14 02:53 UTC NOAA

OWENS DOWNTOWN AIRPORT, SC, United States (KCUB) 33-58N 081-00W 56M
May 13, 2021 - 10:53 PM EDT / 2021.05.14 0253 UTC
Wind: Calm:0
Visibility: 10 mile(s):0
Sky conditions: clear
Temperature: 57.9 F (14.4 C)
Dew Point: 46.0 F (7.8 C)
Relative Humidity: 64%
Pressure (altimeter): 30.23 in. Hg (1023 hPa)
Pressure tendency: 0.04 inches (1.5 hPa) higher than three hours ago
ob: KCUB 140253Z AUTO 00000KT 10SM CLR 14/08 A3023 RMK AO2 SLP235 T01440078 53015
cycle: 3

Station Type Date Time Source
KCUB TAF 2021/05/14 03:46 UTC NOAA

TAF
AMD KCUB 140244Z 1403/1424 00000KT P6SM SKC
FM141400 08006KT P6SM SCT250

Example: see airport list